Aviation Digital Data Service (ADDS)

Output produced by METARs form (0131 UTC 01 March 2021)
found at http://www.aviationweather.gov/metar/data/
 
METAR text: RORY 010100Z AUTO 13011KT 090V160 9999 SCT017 BKN019 23/19 Q1018
Conditions at: RORY (YORON ISLAND , JP) observed 0100 UTC 01 March 2021
Temperature: 23.0°C (73°F)
Dewpoint: 19.0°C (66°F) [RH = 78%]
Pressure (altimeter): 30.06 inches Hg (1018.0 mb)
Winds: from the SE (130 degrees) at 13 MPH (11 knots; 5.7 m/s)
Visibility: 6 or more miles (10+ km)
Ceiling: 1900 feet AGL
Clouds: scattered clouds at 1700 feet AGL
broken clouds at 1900 feet AGL
Weather: no significant weather observed at this time

METAR text: RORY 010000Z AUTO 11010KT 9999 BKN015 BKN036 22/19 Q1017
Conditions at: RORY (YORON ISLAND , JP) observed 0000 UTC 01 March 2021
Temperature: 22.0°C (72°F)
Dewpoint: 19.0°C (66°F) [RH = 83%]
Pressure (altimeter): 30.03 inches Hg (1017.0 mb)
Winds: from the ESE (110 degrees) at 12 MPH (10 knots; 5.1 m/s)
Visibility: 6 or more miles (10+ km)
Ceiling: 1500 feet AGL
Clouds: broken clouds at 1500 feet AGL
broken clouds at 3600 feet AGL
Weather: no significant weather observed at this time

METAR text: RORY 282300Z AUTO 10010KT 9999 SCT014 BKN023 21/18 Q1017
Conditions at: RORY (YORON ISLAND , JP) observed 2300 UTC 28 February 2021
Temperature: 21.0°C (70°F)
Dewpoint: 18.0°C (64°F) [RH = 83%]
Pressure (altimeter): 30.03 inches Hg (1017.0 mb)
Winds: from the E (100 degrees) at 12 MPH (10 knots; 5.1 m/s)
Visibility: 6 or more miles (10+ km)
Ceiling: 2300 feet AGL
Clouds: scattered clouds at 1400 feet AGL
broken clouds at 2300 feet AGL
Weather: no significant weather observed at this time

METAR text: RORY 282200Z AUTO 10010KT 9999 NCD 20/18 Q1016
Conditions at: RORY (YORON ISLAND , JP) observed 2200 UTC 28 February 2021
Temperature: 20.0°C (68°F)
Dewpoint: 18.0°C (64°F) [RH = 88%]
Pressure (altimeter): 30.00 inches Hg (1016.0 mb)
Winds: from the E (100 degrees) at 12 MPH (10 knots; 5.1 m/s)
Visibility: 6 or more miles (10+ km)
Ceiling: at least 12,000 feet AGL
Clouds: sky clear below 12,000 feet AGL
Weather: no significant weather observed at this time

METAR text: RORY 282100Z AUTO 10008KT 9999 SCT015 20/18 Q1016
Conditions at: RORY (YORON ISLAND , JP) observed 2100 UTC 28 February 2021
Temperature: 20.0°C (68°F)
Dewpoint: 18.0°C (64°F) [RH = 88%]
Pressure (altimeter): 30.00 inches Hg (1016.0 mb)
Winds: from the E (100 degrees) at 9 MPH (8 knots; 4.1 m/s)
Visibility: 6 or more miles (10+ km)
Ceiling: at least 12,000 feet AGL
Clouds: scattered clouds at 1500 feet AGL
Weather: no significant weather observed at this time

METAR text: RORY 282000Z AUTO 09011KT 9999 FEW013 SCT017 20/18 Q1016
Conditions at: RORY (YORON ISLAND , JP) observed 2000 UTC 28 February 2021
Temperature: 20.0°C (68°F)
Dewpoint: 18.0°C (64°F) [RH = 88%]
Pressure (altimeter): 30.00 inches Hg (1016.0 mb)
Winds: from the E (90 degrees) at 13 MPH (11 knots; 5.7 m/s)
Visibility: 6 or more miles (10+ km)
Ceiling: at least 12,000 feet AGL
Clouds: few clouds at 1300 feet AGL
scattered clouds at 1700 feet AGL
Weather: no significant weather observed at this time

METAR text: RORY 281900Z AUTO 09011KT 9999 SCT013 SCT019 BKN031 20/18 Q1016
Conditions at: RORY (YORON ISLAND , JP) observed 1900 UTC 28 February 2021
Temperature: 20.0°C (68°F)
Dewpoint: 18.0°C (64°F) [RH = 88%]
Pressure (altimeter): 30.00 inches Hg (1016.0 mb)
Winds: from the E (90 degrees) at 13 MPH (11 knots; 5.7 m/s)
Visibility: 6 or more miles (10+ km)
Ceiling: 3100 feet AGL
Clouds: scattered clouds at 1300 feet AGL
scattered clouds at 1900 feet AGL
broken clouds at 3100 feet AGL
Weather: no significant weather observed at this time

METAR text: RORY 281800Z AUTO 09012KT 9999 SCT015 SCT030 BKN036 20/18 Q1017
Conditions at: RORY (YORON ISLAND , JP) observed 1800 UTC 28 February 2021
Temperature: 20.0°C (68°F)
Dewpoint: 18.0°C (64°F) [RH = 88%]
Pressure (altimeter): 30.03 inches Hg (1017.0 mb)
Winds: from the E (90 degrees) at 14 MPH (12 knots; 6.2 m/s)
Visibility: 6 or more miles (10+ km)
Ceiling: 3600 feet AGL
Clouds: scattered clouds at 1500 feet AGL
scattered clouds at 3000 feet AGL
broken clouds at 3600 feet AGL
Weather: no significant weather observed at this time

METAR text: RORY 281700Z AUTO 09014KT 9999 FEW013 SCT021 BKN025 19/18 Q1017
Conditions at: RORY (YORON ISLAND , JP) observed 1700 UTC 28 February 2021
Temperature: 19.0°C (66°F)
Dewpoint: 18.0°C (64°F) [RH = 94%]
Pressure (altimeter): 30.03 inches Hg (1017.0 mb)
Winds: from the E (90 degrees) at 16 MPH (14 knots; 7.2 m/s)
Visibility: 6 or more miles (10+ km)
Ceiling: 2500 feet AGL
Clouds: few clouds at 1300 feet AGL
scattered clouds at 2100 feet AGL
broken clouds at 2500 feet AGL
Weather: no significant weather observed at this time

METAR text: RORY 281600Z AUTO 08013G23KT 7000 -RA BKN013 BKN019 BKN023 20/18 Q1017
Conditions at: RORY (YORON ISLAND , JP) observed 1600 UTC 28 February 2021
Temperature: 20.0°C (68°F)
Dewpoint: 18.0°C (64°F) [RH = 88%]
Pressure (altimeter): 30.03 inches Hg (1017.0 mb)
Winds: from the E (80 degrees) at 15 MPH (13 knots; 6.7 m/s)
gusting to 26 MPH (23 knots; 11.8 m/s)
Visibility: 4 miles ( 7 km)
Ceiling: 1300 feet AGL
Clouds: broken clouds at 1300 feet AGL
broken clouds at 1900 feet AGL
broken clouds at 2300 feet AGL
Weather: -RA  (light rain)

METAR text: RORY 281500Z AUTO 09015KT 9999 FEW012 BKN020 BKN032 20/18 Q1017
Conditions at: RORY (YORON ISLAND , JP) observed 1500 UTC 28 February 2021
Temperature: 20.0°C (68°F)
Dewpoint: 18.0°C (64°F) [RH = 88%]
Pressure (altimeter): 30.03 inches Hg (1017.0 mb)
Winds: from the E (90 degrees) at 17 MPH (15 knots; 7.7 m/s)
Visibility: 6 or more miles (10+ km)
Ceiling: 2000 feet AGL
Clouds: few clouds at 1200 feet AGL
broken clouds at 2000 feet AGL
broken clouds at 3200 feet AGL
Weather: no significant weather observed at this time

METAR text: RORY 281400Z AUTO 09015KT 9999 BKN014 BKN021 BKN024 20/18 Q1017
Conditions at: RORY (YORON ISLAND , JP) observed 1400 UTC 28 February 2021
Temperature: 20.0°C (68°F)
Dewpoint: 18.0°C (64°F) [RH = 88%]
Pressure (altimeter): 30.03 inches Hg (1017.0 mb)
Winds: from the E (90 degrees) at 17 MPH (15 knots; 7.7 m/s)
Visibility: 6 or more miles (10+ km)
Ceiling: 1400 feet AGL
Clouds: broken clouds at 1400 feet AGL
broken clouds at 2100 feet AGL
broken clouds at 2400 feet AGL
Weather: no significant weather observed at this time

METAR text: RORY 281300Z AUTO 09015KT 9999 BKN016 20/17 Q1016
Conditions at: RORY (YORON ISLAND , JP) observed 1300 UTC 28 February 2021
Temperature: 20.0°C (68°F)
Dewpoint: 17.0°C (63°F) [RH = 83%]
Pressure (altimeter): 30.00 inches Hg (1016.0 mb)
Winds: from the E (90 degrees) at 17 MPH (15 knots; 7.7 m/s)
Visibility: 6 or more miles (10+ km)
Ceiling: 1600 feet AGL
Clouds: broken clouds at 1600 feet AGL
Weather: no significant weather observed at this time

METAR text: RORY 281200Z AUTO 09015G26KT 9999 SCT013 BKN021 BKN024 20/18 Q1016
Conditions at: RORY (YORON ISLAND , JP) observed 1200 UTC 28 February 2021
Temperature: 20.0°C (68°F)
Dewpoint: 18.0°C (64°F) [RH = 88%]
Pressure (altimeter): 30.00 inches Hg (1016.0 mb)
Winds: from the E (90 degrees) at 17 MPH (15 knots; 7.7 m/s)
gusting to 30 MPH (26 knots; 13.4 m/s)
Visibility: 6 or more miles (10+ km)
Ceiling: 2100 feet AGL
Clouds: scattered clouds at 1300 feet AGL
broken clouds at 2100 feet AGL
broken clouds at 2400 feet AGL
Weather: no significant weather observed at this time

METAR text: RORY 281100Z AUTO 08016G28KT 9999 BKN013 BKN019 20/18 Q1016
Conditions at: RORY (YORON ISLAND , JP) observed 1100 UTC 28 February 2021
Temperature: 20.0°C (68°F)
Dewpoint: 18.0°C (64°F) [RH = 88%]
Pressure (altimeter): 30.00 inches Hg (1016.0 mb)
Winds: from the E (80 degrees) at 18 MPH (16 knots; 8.2 m/s)
gusting to 32 MPH (28 knots; 14.4 m/s)
Visibility: 6 or more miles (10+ km)
Ceiling: 1300 feet AGL
Clouds: broken clouds at 1300 feet AGL
broken clouds at 1900 feet AGL
Weather: no significant weather observed at this time

METAR text: RORY 281000Z AUTO 08016KT 9999 SCT012 BKN015 BKN025 20/18 Q1016
Conditions at: RORY (YORON ISLAND , JP) observed 1000 UTC 28 February 2021
Temperature: 20.0°C (68°F)
Dewpoint: 18.0°C (64°F) [RH = 88%]
Pressure (altimeter): 30.00 inches Hg (1016.0 mb)
Winds: from the E (80 degrees) at 18 MPH (16 knots; 8.2 m/s)
Visibility: 6 or more miles (10+ km)
Ceiling: 1500 feet AGL
Clouds: scattered clouds at 1200 feet AGL
broken clouds at 1500 feet AGL
broken clouds at 2500 feet AGL
Weather: no significant weather observed at this time

METAR text: RORY 280925Z AUTO 09015G26KT 9999 BKN010 20/18 Q1015 RMK A3000
Conditions at: RORY (YORON ISLAND , JP) observed 0925 UTC 28 February 2021
Temperature: 20.0°C (68°F)
Dewpoint: 18.0°C (64°F) [RH = 88%]
Pressure (altimeter): 29.97 inches Hg (1015.0 mb)
Winds: from the E (90 degrees) at 17 MPH (15 knots; 7.7 m/s)
gusting to 30 MPH (26 knots; 13.4 m/s)
Visibility: 6 or more miles (10+ km)
Ceiling: 1000 feet AGL
Clouds: broken clouds at 1000 feet AGL
Weather: no significant weather observed at this time

METAR text: RORY 280900Z AUTO 09018KT 9999 FEW011 SCT015 BKN017 21/18 Q1015
Conditions at: RORY (YORON ISLAND , JP) observed 0900 UTC 28 February 2021
Temperature: 21.0°C (70°F)
Dewpoint: 18.0°C (64°F) [RH = 83%]
Pressure (altimeter): 29.97 inches Hg (1015.0 mb)
Winds: from the E (90 degrees) at 21 MPH (18 knots; 9.3 m/s)
Visibility: 6 or more miles (10+ km)
Ceiling: 1700 feet AGL
Clouds: few clouds at 1100 feet AGL
scattered clouds at 1500 feet AGL
broken clouds at 1700 feet AGL
Weather: no significant weather observed at this time

METAR text: RORY 280801Z AUTO 09016G26KT 9999 FEW014 SCT017 BKN021 21/18 Q1015 RMK A2998
Conditions at: RORY (YORON ISLAND , JP) observed 0801 UTC 28 February 2021
Temperature: 21.0°C (70°F)
Dewpoint: 18.0°C (64°F) [RH = 83%]
Pressure (altimeter): 29.97 inches Hg (1015.0 mb)
Winds: from the E (90 degrees) at 18 MPH (16 knots; 8.2 m/s)
gusting to 30 MPH (26 knots; 13.4 m/s)
Visibility: 6 or more miles (10+ km)
Ceiling: 2100 feet AGL
Clouds: few clouds at 1400 feet AGL
scattered clouds at 1700 feet AGL
broken clouds at 2100 feet AGL
Weather: no significant weather observed at this time

METAR text: RORY 280800Z AUTO 09016KT 9999 FEW014 SCT017 BKN021 21/18 Q1015
Conditions at: RORY (YORON ISLAND , JP) observed 0800 UTC 28 February 2021
Temperature: 21.0°C (70°F)
Dewpoint: 18.0°C (64°F) [RH = 83%]
Pressure (altimeter): 29.97 inches Hg (1015.0 mb)
Winds: from the E (90 degrees) at 18 MPH (16 knots; 8.2 m/s)
Visibility: 6 or more miles (10+ km)
Ceiling: 2100 feet AGL
Clouds: few clouds at 1400 feet AGL
scattered clouds at 1700 feet AGL
broken clouds at 2100 feet AGL
Weather: no significant weather observed at this time

METAR text: RORY 280700Z AUTO 09018G28KT 9999 FEW015 BKN024 BKN029 21/17 Q1014
Conditions at: RORY (YORON ISLAND , JP) observed 0700 UTC 28 February 2021
Temperature: 21.0°C (70°F)
Dewpoint: 17.0°C (63°F) [RH = 78%]
Pressure (altimeter): 29.94 inches Hg (1014.0 mb)
Winds: from the E (90 degrees) at 21 MPH (18 knots; 9.3 m/s)
gusting to 32 MPH (28 knots; 14.4 m/s)
Visibility: 6 or more miles (10+ km)
Ceiling: 2400 feet AGL
Clouds: few clouds at 1500 feet AGL
broken clouds at 2400 feet AGL
broken clouds at 2900 feet AGL
Weather: no significant weather observed at this time

METAR text: RORY 280600Z AUTO 09018G30KT 9999 BKN015 OVC023 22/18 Q1014
Conditions at: RORY (YORON ISLAND , JP) observed 0600 UTC 28 February 2021
Temperature: 22.0°C (72°F)
Dewpoint: 18.0°C (64°F) [RH = 78%]
Pressure (altimeter): 29.94 inches Hg (1014.0 mb)
Winds: from the E (90 degrees) at 21 MPH (18 knots; 9.3 m/s)
gusting to 34 MPH (30 knots; 15.4 m/s)
Visibility: 6 or more miles (10+ km)
Ceiling: 1500 feet AGL
Clouds: broken clouds at 1500 feet AGL
overcast cloud deck at 2300 feet AGL
Weather: no significant weather observed at this time

METAR text: RORY 280500Z AUTO 09018G28KT 9999 BKN013 BKN019 22/18 Q1014
Conditions at: RORY (YORON ISLAND , JP) observed 0500 UTC 28 February 2021
Temperature: 22.0°C (72°F)
Dewpoint: 18.0°C (64°F) [RH = 78%]
Pressure (altimeter): 29.94 inches Hg (1014.0 mb)
Winds: from the E (90 degrees) at 21 MPH (18 knots; 9.3 m/s)
gusting to 32 MPH (28 knots; 14.4 m/s)
Visibility: 6 or more miles (10+ km)
Ceiling: 1300 feet AGL
Clouds: broken clouds at 1300 feet AGL
broken clouds at 1900 feet AGL
Weather: no significant weather observed at this time

METAR text: RORY 280420Z AUTO 09018G28KT 9999 BKN013 OVC029 22/18 Q1014 RMK A2996
Conditions at: RORY (YORON ISLAND , JP) observed 0420 UTC 28 February 2021
Temperature: 22.0°C (72°F)
Dewpoint: 18.0°C (64°F) [RH = 78%]
Pressure (altimeter): 29.94 inches Hg (1014.0 mb)
Winds: from the E (90 degrees) at 21 MPH (18 knots; 9.3 m/s)
gusting to 32 MPH (28 knots; 14.4 m/s)
Visibility: 6 or more miles (10+ km)
Ceiling: 1300 feet AGL
Clouds: broken clouds at 1300 feet AGL
overcast cloud deck at 2900 feet AGL
Weather: no significant weather observed at this time

METAR text: RORY 280400Z AUTO 09019KT 9999 FEW010 BKN014 BKN017 22/18 Q1015
Conditions at: RORY (YORON ISLAND , JP) observed 0400 UTC 28 February 2021
Temperature: 22.0°C (72°F)
Dewpoint: 18.0°C (64°F) [RH = 78%]
Pressure (altimeter): 29.97 inches Hg (1015.0 mb)
Winds: from the E (90 degrees) at 22 MPH (19 knots; 9.8 m/s)
Visibility: 6 or more miles (10+ km)
Ceiling: 1400 feet AGL
Clouds: few clouds at 1000 feet AGL
broken clouds at 1400 feet AGL
broken clouds at 1700 feet AGL
Weather: no significant weather observed at this time

METAR text: RORY 280300Z AUTO 08020G30KT 9999 OVC012 22/18 Q1015
Conditions at: RORY (YORON ISLAND , JP) observed 0300 UTC 28 February 2021
Temperature: 22.0°C (72°F)
Dewpoint: 18.0°C (64°F) [RH = 78%]
Pressure (altimeter): 29.97 inches Hg (1015.0 mb)
Winds: from the E (80 degrees) at 23 MPH (20 knots; 10.3 m/s)
gusting to 34 MPH (30 knots; 15.4 m/s)
Visibility: 6 or more miles (10+ km)
Ceiling: 1200 feet AGL
Clouds: overcast cloud deck at 1200 feet AGL
Weather: no significant weather observed at this time

METAR text: RORY 280201Z AUTO 08018G28KT 9999 OVC013 21/19 Q1016 RMK A3001
Conditions at: RORY (YORON ISLAND , JP) observed 0201 UTC 28 February 2021
Temperature: 21.0°C (70°F)
Dewpoint: 19.0°C (66°F) [RH = 88%]
Pressure (altimeter): 30.00 inches Hg (1016.0 mb)
Winds: from the E (80 degrees) at 21 MPH (18 knots; 9.3 m/s)
gusting to 32 MPH (28 knots; 14.4 m/s)
Visibility: 6 or more miles (10+ km)
Ceiling: 1300 feet AGL
Clouds: overcast cloud deck at 1300 feet AGL
Weather: no significant weather observed at this time

METAR text: RORY 280200Z AUTO 08019KT 9999 OVC013 21/18 Q1016
Conditions at: RORY (YORON ISLAND , JP) observed 0200 UTC 28 February 2021
Temperature: 21.0°C (70°F)
Dewpoint: 18.0°C (64°F) [RH = 83%]
Pressure (altimeter): 30.00 inches Hg (1016.0 mb)
Winds: from the E (80 degrees) at 22 MPH (19 knots; 9.8 m/s)
Visibility: 6 or more miles (10+ km)
Ceiling: 1300 feet AGL
Clouds: overcast cloud deck at 1300 feet AGL
Weather: no significant weather observed at this time

METAR text: RORY 280100Z AUTO 08018G32KT 9999 SCT014 BKN017 BKN020 21/18 Q1016
Conditions at: RORY (YORON ISLAND , JP) observed 0100 UTC 28 February 2021
Temperature: 21.0°C (70°F)
Dewpoint: 18.0°C (64°F) [RH = 83%]
Pressure (altimeter): 30.00 inches Hg (1016.0 mb)
Winds: from the E (80 degrees) at 21 MPH (18 knots; 9.3 m/s)
gusting to 37 MPH (32 knots; 16.5 m/s)
Visibility: 6 or more miles (10+ km)
Ceiling: 1700 feet AGL
Clouds: scattered clouds at 1400 feet AGL
broken clouds at 1700 feet AGL
broken clouds at 2000 feet AGL
Weather: no significant weather observed at this time

METAR text: RORY 280000Z AUTO 07021G31KT 9999 SCT011 BKN021 BKN029 20/18 Q1015
Conditions at: RORY (YORON ISLAND , JP) observed 0000 UTC 28 February 2021
Temperature: 20.0°C (68°F)
Dewpoint: 18.0°C (64°F) [RH = 88%]
Pressure (altimeter): 29.97 inches Hg (1015.0 mb)
Winds: from the ENE (70 degrees) at 24 MPH (21 knots; 10.8 m/s)
gusting to 36 MPH (31 knots; 15.9 m/s)
Visibility: 6 or more miles (10+ km)
Ceiling: 2100 feet AGL
Clouds: scattered clouds at 1100 feet AGL
broken clouds at 2100 feet AGL
broken clouds at 2900 feet AGL
Weather: no significant weather observed at this time

METAR text: RORY 272300Z AUTO 07018G29KT 9999 OVC011 20/18 Q1015
Conditions at: RORY (YORON ISLAND , JP) observed 2300 UTC 27 February 2021
Temperature: 20.0°C (68°F)
Dewpoint: 18.0°C (64°F) [RH = 88%]
Pressure (altimeter): 29.97 inches Hg (1015.0 mb)
Winds: from the ENE (70 degrees) at 21 MPH (18 knots; 9.3 m/s)
gusting to 33 MPH (29 knots; 14.9 m/s)
Visibility: 6 or more miles (10+ km)
Ceiling: 1100 feet AGL
Clouds: overcast cloud deck at 1100 feet AGL
Weather: no significant weather observed at this time

METAR text: RORY 272200Z AUTO 06018G29KT 9999 SCT009 BKN011 20/18 Q1014
Conditions at: RORY (YORON ISLAND , JP) observed 2200 UTC 27 February 2021
Temperature: 20.0°C (68°F)
Dewpoint: 18.0°C (64°F) [RH = 88%]
Pressure (altimeter): 29.94 inches Hg (1014.0 mb)
Winds: from the ENE (60 degrees) at 21 MPH (18 knots; 9.3 m/s)
gusting to 33 MPH (29 knots; 14.9 m/s)
Visibility: 6 or more miles (10+ km)
Ceiling: 1100 feet AGL
Clouds: scattered clouds at 900 feet AGL
broken clouds at 1100 feet AGL
Weather: no significant weather observed at this time

METAR text: RORY 272100Z AUTO 07015KT 9999 BKN011 BKN013 OVC050 //////TCU 20/18 Q1014
Conditions at: RORY (YORON ISLAND , JP) observed 2100 UTC 27 February 2021
Temperature: 20.0°C (68°F)
Dewpoint: 18.0°C (64°F) [RH = 88%]
Pressure (altimeter): 29.94 inches Hg (1014.0 mb)
Winds: from the ENE (70 degrees) at 17 MPH (15 knots; 7.7 m/s)
Visibility: 6 or more miles (10+ km)
Ceiling: 1100 feet AGL
Clouds: broken clouds at 1100 feet AGL
broken clouds at 1300 feet AGL
overcast cloud deck at 5000 feet AGL
Weather: no significant weather observed at this time

METAR text: RORY 272000Z AUTO 07015KT 9999 SCT013 BKN015 OVC049 20/18 Q1013
Conditions at: RORY (YORON ISLAND , JP) observed 2000 UTC 27 February 2021
Temperature: 20.0°C (68°F)
Dewpoint: 18.0°C (64°F) [RH = 88%]
Pressure (altimeter): 29.91 inches Hg (1013.0 mb)
Winds: from the ENE (70 degrees) at 17 MPH (15 knots; 7.7 m/s)
Visibility: 6 or more miles (10+ km)
Ceiling: 1500 feet AGL
Clouds: scattered clouds at 1300 feet AGL
broken clouds at 1500 feet AGL
overcast cloud deck at 4900 feet AGL
Weather: no significant weather observed at this time

METAR text: RORY 271900Z AUTO 07015KT 9999 FEW011 SCT014 BKN049 20/18 Q1013
Conditions at: RORY (YORON ISLAND , JP) observed 1900 UTC 27 February 2021
Temperature: 20.0°C (68°F)
Dewpoint: 18.0°C (64°F) [RH = 88%]
Pressure (altimeter): 29.91 inches Hg (1013.0 mb)
Winds: from the ENE (70 degrees) at 17 MPH (15 knots; 7.7 m/s)
Visibility: 6 or more miles (10+ km)
Ceiling: 4900 feet AGL
Clouds: few clouds at 1100 feet AGL
scattered clouds at 1400 feet AGL
broken clouds at 4900 feet AGL
Weather: no significant weather observed at this time

METAR text: RORY 271800Z AUTO 08017KT 9999 BKN013 OVC047 20/18 Q1013
Conditions at: RORY (YORON ISLAND , JP) observed 1800 UTC 27 February 2021
Temperature: 20.0°C (68°F)
Dewpoint: 18.0°C (64°F) [RH = 88%]
Pressure (altimeter): 29.91 inches Hg (1013.0 mb)
Winds: from the E (80 degrees) at 20 MPH (17 knots; 8.7 m/s)
Visibility: 6 or more miles (10+ km)
Ceiling: 1300 feet AGL
Clouds: broken clouds at 1300 feet AGL
overcast cloud deck at 4700 feet AGL
Weather: no significant weather observed at this time

METAR text: RORY 271700Z AUTO 08012KT 9999 BKN011 OVC060 19/18 Q1013
Conditions at: RORY (YORON ISLAND , JP) observed 1700 UTC 27 February 2021
Temperature: 19.0°C (66°F)
Dewpoint: 18.0°C (64°F) [RH = 94%]
Pressure (altimeter): 29.91 inches Hg (1013.0 mb)
Winds: from the E (80 degrees) at 14 MPH (12 knots; 6.2 m/s)
Visibility: 6 or more miles (10+ km)
Ceiling: 1100 feet AGL
Clouds: broken clouds at 1100 feet AGL
overcast cloud deck at 6000 feet AGL
Weather: no significant weather observed at this time

METAR text: RORY 271600Z AUTO 07014G24KT 9999 FEW009 SCT017 BKN029 19/18 Q1013
Conditions at: RORY (YORON ISLAND , JP) observed 1600 UTC 27 February 2021
Temperature: 19.0°C (66°F)
Dewpoint: 18.0°C (64°F) [RH = 94%]
Pressure (altimeter): 29.91 inches Hg (1013.0 mb)
Winds: from the ENE (70 degrees) at 16 MPH (14 knots; 7.2 m/s)
gusting to 28 MPH (24 knots; 12.3 m/s)
Visibility: 6 or more miles (10+ km)
Ceiling: 2900 feet AGL
Clouds: few clouds at 900 feet AGL
scattered clouds at 1700 feet AGL
broken clouds at 2900 feet AGL
Weather: no significant weather observed at this time

METAR text: RORY 271500Z AUTO 06007G17KT 350V110 9999 -RA FEW009 SCT010 BKN011 20/19 Q1013
Conditions at: RORY (YORON ISLAND , JP) observed 1500 UTC 27 February 2021
Temperature: 20.0°C (68°F)
Dewpoint: 19.0°C (66°F) [RH = 94%]
Pressure (altimeter): 29.91 inches Hg (1013.0 mb)
Winds: from the ENE (60 degrees) at 8 MPH (7 knots; 3.6 m/s)
gusting to 20 MPH (17 knots; 8.7 m/s)
Visibility: 6 or more miles (10+ km)
Ceiling: 1100 feet AGL
Clouds: few clouds at 900 feet AGL
scattered clouds at 1000 feet AGL
broken clouds at 1100 feet AGL
Weather: -RA  (light rain)

METAR text: RORY 271400Z AUTO 06011KT 9999 FEW010 SCT016 OVC019 20/18 Q1013
Conditions at: RORY (YORON ISLAND , JP) observed 1400 UTC 27 February 2021
Temperature: 20.0°C (68°F)
Dewpoint: 18.0°C (64°F) [RH = 88%]
Pressure (altimeter): 29.91 inches Hg (1013.0 mb)
Winds: from the ENE (60 degrees) at 13 MPH (11 knots; 5.7 m/s)
Visibility: 6 or more miles (10+ km)
Ceiling: 1900 feet AGL
Clouds: few clouds at 1000 feet AGL
scattered clouds at 1600 feet AGL
overcast cloud deck at 1900 feet AGL
Weather: no significant weather observed at this time